Time;durP1;ratioP1;P1;durP2;ratioP2;P2;SDS_P1;SDS_P2;PMS_P1;PMS_P2;Temp;Humidity;BMP_temperature;BMP_pressure;BME280_temperature;BME280_humidity;BME280_pressure;Samples;Min_cycle;Max_cycle;Signal;HPM_P1;HPM_P2
2024/04/10 00:00:59;;;;;;;1999.90;999.90;;;10.30;99.90;;;;;;5374132;26;20000;-61
2024/04/10 00:03:25;;;;;;;1999.90;999.90;;;10.40;99.90;;;;;;5373841;26;20004;-63
2024/04/10 00:06:03;;;;;;;1999.90;999.90;;;10.30;99.90;;;;;;5365840;26;20023;-63
2024/04/10 00:08:30;;;;;;;1999.90;999.90;;;10.30;99.90;;;;;;5378604;26;19996;-61
2024/04/10 00:10:56;;;;;;;1999.90;999.90;;;10.30;99.90;;;;;;5372125;26;20078;-62
2024/04/10 00:13:21;;;;;;;1999.90;999.90;;;10.30;99.90;;;;;;5376139;26;20008;-69
2024/04/10 00:16:01;;;;;;;1999.90;999.90;;;10.20;99.90;;;;;;5377257;26;20014;-61
2024/04/10 00:18:28;;;;;;;1999.90;999.90;;;10.10;99.90;;;;;;5378947;26;20004;-61
2024/04/10 00:20:54;;;;;;;1999.90;999.90;;;10.10;99.90;;;;;;5375904;26;20014;-62
2024/04/10 00:23:19;;;;;;;1999.90;999.90;;;10.20;99.90;;;;;;5377412;26;20000;-63
2024/04/10 00:25:59;;;;;;;1999.90;999.90;;;10.20;99.90;;;;;;5369969;26;20019;-62
2024/04/10 00:28:27;;;;;;;1999.90;999.90;;;10.20;99.90;;;;;;5367128;26;19996;-62
2024/04/10 00:30:53;;;;;;;1999.90;999.90;;;10.20;99.90;;;;;;5371622;26;20016;-61
2024/04/10 00:33:19;;;;;;;1999.90;999.90;;;10.10;99.90;;;;;;5376699;26;20070;-62
2024/04/10 00:35:58;;;;;;;1999.90;999.90;;;10.10;99.90;;;;;;5373838;26;20011;-62
2024/04/10 00:38:27;;;;;;;1999.90;999.90;;;10.10;99.90;;;;;;5351460;26;20466;-63
2024/04/10 00:40:57;;;;;;;1999.90;999.90;;;10.00;99.90;;;;;;5370190;26;20077;-62
2024/04/10 00:43:23;;;;;;;1999.90;999.90;;;10.00;99.90;;;;;;5361917;26;20402;-62
2024/04/10 00:46:04;;;;;;;1999.90;999.90;;;10.00;99.90;;;;;;5375304;26;20004;-62
2024/04/10 00:48:30;;;;;;;1999.90;999.90;;;10.00;99.90;;;;;;5377499;26;20064;-62
2024/04/10 00:50:57;;;;;;;1999.90;999.90;;;9.90;99.90;;;;;;5367634;26;20011;-62
2024/04/10 00:53:24;;;;;;;1999.90;999.90;;;10.10;99.90;;;;;;5398881;26;20028;-62
2024/04/10 00:55:50;;;;;;;1999.90;999.90;;;10.10;99.90;;;;;;5363957;26;20005;-62
2024/04/10 00:58:16;;;;;;;1999.90;999.90;;;10.00;99.90;;;;;;5367908;26;20114;-62
2024/04/10 01:00:42;;;;;;;1999.90;999.90;;;10.00;99.90;;;;;;5366568;26;20430;-62
2024/04/10 01:03:09;;;;;;;1999.90;999.90;;;10.00;99.90;;;;;;5372475;26;19996;-63
2024/04/10 01:05:35;;;;;;;1999.90;999.90;;;10.00;99.90;;;;;;5375518;26;20001;-62
2024/04/10 01:08:02;;;;;;;1999.90;999.90;;;10.00;99.90;;;;;;5373957;26;20018;-62
2024/04/10 01:10:28;;;;;;;1999.90;999.90;;;10.00;99.90;;;;;;5374900;26;20077;-71
2024/04/10 01:12:54;;;;;;;1999.90;999.90;;;10.00;99.90;;;;;;5377069;26;20011;-61
2024/04/10 01:15:20;;;;;;;1999.90;999.90;;;9.90;99.90;;;;;;5358345;26;20005;-63
2024/04/10 01:17:46;;;;;;;1999.90;999.90;;;9.80;99.90;;;;;;5360500;26;20074;-61
2024/04/10 01:20:12;;;;;;;1999.90;999.90;;;9.90;99.90;;;;;;5341164;26;20004;-62
2024/04/10 01:22:37;;;;;;;1999.90;999.90;;;9.70;99.90;;;;;;5374933;26;20013;-65
2024/04/10 01:25:07;;;;;;;1999.90;999.90;;;9.70;99.90;;;;;;5374180;26;19996;-62
2024/04/10 01:27:33;;;;;;;1999.90;999.90;;;9.80;99.90;;;;;;5362576;26;20434;-62
2024/04/10 01:29:59;;;;;;;1999.90;999.90;;;9.80;99.90;;;;;;5376605;26;20024;-64
2024/04/10 01:32:24;;;;;;;1999.90;999.90;;;9.90;99.90;;;;;;5376109;26;19996;-61
2024/04/10 01:34:50;;;;;;;1999.90;999.90;;;9.80;99.90;;;;;;5376069;26;20488;-62
2024/04/10 01:37:15;;;;;;;1999.90;999.90;;;9.70;99.90;;;;;;5370574;26;20000;-62
2024/04/10 01:39:41;;;;;;;1999.90;999.90;;;9.80;99.90;;;;;;5369994;26;20013;-62
2024/04/10 01:42:07;;;;;;;1999.90;999.90;;;9.70;99.90;;;;;;5357669;26;20009;-62
2024/04/10 01:44:33;;;;;;;1999.90;999.90;;;9.70;99.90;;;;;;5370759;26;20015;-63
2024/04/10 01:46:58;;;;;;;1999.90;999.90;;;9.60;99.90;;;;;;5374692;26;20438;-61
2024/04/10 01:49:24;;;;;;;1999.90;999.90;;;9.70;99.90;;;;;;5352821;26;20328;-61
2024/04/10 01:51:50;;;;;;;1999.90;999.90;;;9.70;99.90;;;;;;5376917;26;20067;-62
2024/04/10 01:54:16;;;;;;;1999.90;999.90;;;9.70;99.90;;;;;;5367075;26;20033;-62
2024/04/10 01:56:41;;;;;;;1999.90;999.90;;;9.60;99.90;;;;;;5367236;26;19992;-63
2024/04/10 01:59:07;;;;;;;1999.90;999.90;;;9.70;99.90;;;;;;5355751;26;20000;-61
2024/04/10 02:01:34;;;;;;;1999.90;999.90;;;9.70;99.90;;;;;;5374873;26;20417;-62
2024/04/10 02:04:00;;;;;;;1999.90;999.90;;;9.70;99.90;;;;;;5371877;26;20012;-62
2024/04/10 02:06:26;;;;;;;1999.90;999.90;;;9.60;99.90;;;;;;5376360;26;19992;-62
2024/04/10 02:08:51;;;;;;;1999.90;999.90;;;9.60;99.90;;;;;;5369610;26;20791;-68
2024/04/10 02:11:23;;;;;;;1999.90;999.90;;;9.60;99.90;;;;;;5376068;26;20078;-62
2024/04/10 02:13:48;;;;;;;1999.90;999.90;;;9.60;99.90;;;;;;5356369;26;20455;-62
2024/04/10 02:16:14;;;;;;;1999.90;999.90;;;9.60;99.90;;;;;;5378213;26;19996;-62
2024/04/10 02:18:40;;;;;;;1999.90;999.90;;;9.50;99.90;;;;;;5378931;26;20011;-62
2024/04/10 02:21:06;;;;;;;1999.90;999.90;;;9.50;99.90;;;;;;5366145;26;20043;-62
2024/04/10 02:23:32;;;;;;;1999.90;999.90;;;9.50;99.90;;;;;;5378712;26;20015;-62
2024/04/10 02:25:57;;;;;;;1999.90;999.90;;;9.50;99.90;;;;;;5379750;26;20004;-63
2024/04/10 02:28:23;;;;;;;1999.90;999.90;;;9.50;99.90;;;;;;5370488;26;19992;-62
2024/04/10 02:30:50;;;;;;;1999.90;999.90;;;9.50;99.90;;;;;;5377724;26;20005;-61
2024/04/10 02:33:15;;;;;;;1999.90;999.90;;;9.50;99.90;;;;;;5376053;26;20413;-62
2024/04/10 02:35:41;;;;;;;1999.90;999.90;;;9.40;99.90;;;;;;5375913;26;20004;-62
2024/04/10 02:38:07;;;;;;;1999.90;999.90;;;9.40;99.90;;;;;;5379133;26;20007;-62
2024/04/10 02:40:33;;;;;;;1999.90;999.90;;;9.50;99.90;;;;;;5369884;26;20522;-66
2024/04/10 02:43:07;;;;;;;1999.90;999.90;;;9.50;99.90;;;;;;5351171;26;20001;-63
2024/04/10 02:45:33;;;;;;;1999.90;999.90;;;9.50;99.90;;;;;;5379348;26;19996;-67
2024/04/10 02:48:00;;;;;;;1999.90;999.90;;;9.50;99.90;;;;;;5364652;26;20011;-63
2024/04/10 02:50:25;;;;;;;1999.90;999.90;;;9.50;99.90;;;;;;5377244;26;20325;-62
2024/04/10 02:52:51;;;;;;;1999.90;999.90;;;9.50;99.90;;;;;;5378185;26;20077;-62
2024/04/10 02:55:17;;;;;;;1999.90;999.90;;;9.40;99.90;;;;;;5374992;26;20329;-62
2024/04/10 02:57:42;;;;;;;1999.90;999.90;;;9.40;99.90;;;;;;5377521;26;20438;-63
2024/04/10 03:00:10;;;;;;;1999.90;999.90;;;9.50;99.90;;;;;;5361510;26;20074;-62
2024/04/10 03:02:37;;;;;;;1999.90;999.90;;;9.50;99.90;;;;;;5374777;26;20816;-64
2024/04/10 03:05:04;;;;;;;1999.90;999.90;;;9.50;99.90;;;;;;5380099;26;20000;-62
2024/04/10 03:07:30;;;;;;;1999.90;999.90;;;9.40;99.90;;;;;;5359966;26;20012;-62
2024/04/10 03:09:56;;;;;;;1999.90;999.90;;;9.40;99.90;;;;;;5366480;26;20432;-63
2024/04/10 03:12:21;;;;;;;1999.90;999.90;;;9.40;99.90;;;;;;5373617;26;20437;-62
2024/04/10 03:14:48;;;;;;;1999.90;999.90;;;9.30;99.90;;;;;;5370830;26;20448;-62
2024/04/10 03:17:16;;;;;;;1999.90;999.90;;;9.30;99.90;;;;;;5366408;26;20016;-62
2024/04/10 03:19:41;;;;;;;1999.90;999.90;;;9.30;99.90;;;;;;5371787;26;20065;-61
2024/04/10 03:22:09;;;;;;;1999.90;999.90;;;9.30;99.90;;;;;;5377920;26;20000;-62
2024/04/10 03:24:34;;;;;;;1999.90;999.90;;;9.20;99.90;;;;;;5376651;26;20049;-64
2024/04/10 03:27:00;;;;;;;1999.90;999.90;;;9.20;99.90;;;;;;5364587;26;20012;-63
2024/04/10 03:29:26;;;;;;;1999.90;999.90;;;9.20;99.90;;;;;;5379525;26;20329;-63
2024/04/10 03:31:53;;;;;;;1999.90;999.90;;;9.10;99.90;;;;;;5377945;26;20012;-62
2024/04/10 03:34:19;;;;;;;1999.90;999.90;;;9.10;99.90;;;;;;5375018;26;20000;-63
2024/04/10 03:36:44;;;;;;;1999.90;999.90;;;9.20;99.90;;;;;;5378470;26;20014;-62
2024/04/10 03:39:11;;;;;;;1999.90;999.90;;;9.20;99.90;;;;;;5375600;26;20320;-66
2024/04/10 03:41:37;;;;;;;1999.90;999.90;;;9.20;99.90;;;;;;5370002;26;19993;-61
2024/04/10 03:44:05;;;;;;;1999.90;999.90;;;9.10;99.90;;;;;;5372101;26;20953;-62
2024/04/10 03:46:33;;;;;;;1999.90;999.90;;;9.00;99.90;;;;;;5373677;26;20000;-62
2024/04/10 03:48:59;;;;;;;1999.90;999.90;;;9.00;99.90;;;;;;5375867;26;20077;-61
2024/04/10 03:51:25;;;;;;;1999.90;999.90;;;9.10;99.90;;;;;;5373001;26;20048;-62
2024/04/10 03:53:50;;;;;;;1999.90;999.90;;;9.10;99.90;;;;;;5373927;26;20010;-61
2024/04/10 03:56:16;;;;;;;1999.90;999.90;;;9.10;99.90;;;;;;5362326;26;20028;-62
2024/04/10 03:58:42;;;;;;;1999.90;999.90;;;9.10;99.90;;;;;;5370217;26;20011;-61
2024/04/10 04:01:07;;;;;;;1999.90;999.90;;;9.10;99.90;;;;;;5376937;26;20070;-62
2024/04/10 04:03:34;;;;;;;1999.90;999.90;;;9.00;99.90;;;;;;5376111;26;19996;-61
2024/04/10 04:06:00;;;;;;;1999.90;999.90;;;8.90;99.90;;;;;;5367020;26;20012;-61
2024/04/10 04:08:27;;;;;;;1999.90;999.90;;;8.90;99.90;;;;;;5365393;26;20005;-62
2024/04/10 04:10:55;;;;;;;1999.90;999.90;;;8.80;99.90;;;;;;5361768;26;20444;-62
2024/04/10 05:06:17;;;;;;;1999.90;999.90;;;8.40;99.90;;;;;;5485682;25;20457;-64
2024/04/10 05:08:43;;;;;;;1999.90;999.90;;;8.40;99.90;;;;;;5459027;26;19999;-62
2024/04/10 05:11:09;;;;;;;1999.90;999.90;;;8.50;99.90;;;;;;5456339;26;20017;-63
2024/04/10 05:13:36;;;;;;;1999.90;999.90;;;8.60;99.90;;;;;;5464073;26;20017;-66
2024/04/10 05:16:02;;;;;;;1999.90;999.90;;;8.60;99.90;;;;;;5464466;26;19999;-68
2024/04/10 05:18:28;;;;;;;1999.90;999.90;;;8.60;99.90;;;;;;5460450;25;20015;-62
2024/04/10 05:20:53;;;;;;;1999.90;999.90;;;8.60;99.90;;;;;;5471006;26;20089;-63
2024/04/10 05:23:19;;;;;;;1999.90;999.90;;;8.70;99.90;;;;;;5464535;26;20698;-63
2024/04/10 05:25:46;;;;;;;1999.90;999.90;;;8.70;99.90;;;;;;5467449;26;19999;-63
2024/04/10 05:28:11;;;;;;;1999.90;999.90;;;8.70;99.90;;;;;;5464700;25;20472;-63
2024/04/10 05:30:37;;;;;;;1999.90;999.90;;;8.70;99.90;;;;;;5471955;25;20359;-64
2024/04/10 05:33:03;;;;;;;1999.90;999.90;;;8.80;99.90;;;;;;5498888;25;20013;-63
2024/04/10 05:35:29;;;;;;;1999.90;999.90;;;8.70;99.90;;;;;;5481680;25;20016;-68
2024/04/10 05:37:56;;;;;;;1999.90;999.90;;;8.60;99.90;;;;;;5461107;26;19998;-67
2024/04/10 05:40:22;;;;;;;1999.90;999.90;;;8.70;99.90;;;;;;5456144;26;20075;-67
2024/04/10 05:42:48;;;;;;;1999.90;999.90;;;8.80;99.90;;;;;;5463045;26;20003;-63
2024/04/10 05:45:14;;;;;;;1999.90;999.90;;;8.90;99.90;;;;;;5463084;26;20458;-63
2024/04/10 05:47:41;;;;;;;1999.90;999.90;;;8.90;99.90;;;;;;5460230;26;20326;-67
2024/04/10 05:50:10;;;;;;;1999.90;999.90;;;8.90;99.90;;;;;;5458748;26;19998;-67
2024/04/10 05:52:39;;;;;;;1999.90;999.90;;;9.00;99.90;;;;;;5432008;26;19998;-66
2024/04/10 05:55:05;;;;;;;1999.90;999.90;;;9.00;99.90;;;;;;5445181;26;19991;-68
2024/04/10 05:57:31;;;;;;;1999.90;999.90;;;9.00;99.90;;;;;;5454081;25;20017;-66
2024/04/10 05:59:57;;;;;;;1999.90;999.90;;;9.20;99.90;;;;;;5457309;26;20003;-64
2024/04/10 06:02:26;;;;;;;1999.90;999.90;;;9.20;99.90;;;;;;5453986;25;20021;-66
2024/04/10 06:04:56;;;;;;;1999.90;999.90;;;9.20;99.90;;;;;;5463112;25;19995;-68
2024/04/10 06:07:22;;;;;;;1999.90;999.90;;;9.30;99.90;;;;;;5460778;25;20006;-66
2024/04/10 06:09:55;;;;;;;1999.90;999.90;;;9.30;99.90;;;;;;5464177;26;20010;-67
2024/04/10 06:12:22;;;;;;;1999.90;999.90;;;9.40;99.90;;;;;;5496791;25;20082;-66
2024/04/10 06:14:54;;;;;;;1999.90;999.90;;;9.40;99.90;;;;;;5451341;26;20030;-66
2024/04/10 06:17:26;;;;;;;1999.90;999.90;;;9.40;99.90;;;;;;5446911;26;20034;-66
2024/04/10 06:19:53;;;;;;;1999.90;999.90;;;9.50;99.90;;;;;;5446293;26;20016;-68
2024/04/10 06:22:19;;;;;;;1999.90;999.90;;;9.40;99.90;;;;;;5453126;26;20327;-66
2024/04/10 06:24:46;;;;;;;1999.90;999.90;;;9.50;99.90;;;;;;5445601;26;20021;-65
2024/04/10 06:27:13;;;;;;;1999.90;999.90;;;9.50;99.90;;;;;;5480321;25;19994;-63
2024/04/10 06:29:45;;;;;;;1999.90;999.90;;;9.70;99.90;;;;;;5433124;26;23652;-62
2024/04/10 06:32:12;;;;;;;1999.90;999.90;;;9.70;99.90;;;;;;5440637;26;20088;-70
2024/04/10 06:34:38;;;;;;;1999.90;999.90;;;9.60;99.90;;;;;;5431006;26;20014;-68
2024/04/10 06:37:05;;;;;;;1999.90;999.90;;;9.70;99.90;;;;;;5437416;26;20003;-70
2024/04/10 06:39:31;;;;;;;1999.90;999.90;;;9.80;99.90;;;;;;5441252;26;20018;-67
2024/04/10 06:41:56;;;;;;;1999.90;999.90;;;9.80;99.90;;;;;;5443563;26;20072;-69
2024/04/10 06:44:22;;;;;;;1999.90;999.90;;;10.00;99.90;;;;;;5436110;26;20007;-70
2024/04/10 06:46:48;;;;;;;1999.90;999.90;;;10.00;99.90;;;;;;5437412;26;20013;-70
2024/04/10 06:49:13;;;;;;;1999.90;999.90;;;10.10;99.90;;;;;;5430022;26;20827;-67
2024/04/10 06:51:39;;;;;;;1999.90;999.90;;;10.10;99.90;;;;;;5423606;26;20003;-71
2024/04/10 06:54:05;;;;;;;1999.90;999.90;;;10.10;99.90;;;;;;5436296;26;20013;-67
2024/04/10 06:56:31;;;;;;;1999.90;999.90;;;10.10;99.90;;;;;;5443442;26;20426;-69
2024/04/10 06:58:58;;;;;;;1999.90;999.90;;;10.10;99.90;;;;;;5431219;26;20002;-69
2024/04/10 07:01:24;;;;;;;1999.90;999.90;;;10.10;99.90;;;;;;5427256;26;20803;-65
2024/04/10 07:03:50;;;;;;;1999.90;999.90;;;10.20;99.90;;;;;;5467101;26;20426;-69
2024/04/10 07:06:17;;;;;;;1999.90;999.90;;;10.30;99.90;;;;;;5430968;26;20011;-71
2024/04/10 07:08:48;;;;;;;1999.90;999.90;;;10.40;99.90;;;;;;5441465;26;20006;-70
2024/04/10 07:11:16;;;;;;;1999.90;999.90;;;10.40;99.90;;;;;;5440321;26;19991;-67
2024/04/10 07:13:45;;;;;;;1999.90;999.90;;;10.50;99.90;;;;;;5413964;26;20326;-66
2024/04/10 07:16:11;;;;;;;1999.90;999.90;;;10.60;99.90;;;;;;5426282;26;20035;-71
2024/04/10 07:18:37;;;;;;;1999.90;999.90;;;10.70;99.90;;;;;;5432530;26;20026;-67
2024/04/10 07:21:05;;;;;;;1999.90;999.90;;;10.70;99.90;;;;;;5431770;26;20014;-71
2024/04/10 07:23:33;;;;;;;1999.90;999.90;;;10.70;99.90;;;;;;5433216;26;19998;-70
2024/04/10 07:26:12;;;;;;;1999.90;999.90;;;10.80;99.90;;;;;;5433588;26;20066;-69
2024/04/10 07:28:44;;;;;;;1999.90;999.90;;;10.70;99.90;;;;;;5430912;26;19997;-71
2024/04/10 07:31:15;;;;;;;1999.90;999.90;;;10.70;99.90;;;;;;5443996;26;19999;-69
2024/04/10 07:33:41;;;;;;;1999.90;999.90;;;10.80;99.90;;;;;;5438091;26;20933;-68
2024/04/10 07:36:11;;;;;;;1999.90;999.90;;;11.00;99.90;;;;;;5411758;26;20002;-69
2024/04/10 07:38:37;;;;;;;1999.90;999.90;;;11.10;99.90;;;;;;5420105;26;19991;-70
2024/04/10 07:41:04;;;;;;;1999.90;999.90;;;11.20;99.90;;;;;;5421357;26;20270;-70
2024/04/10 07:43:31;;;;;;;1999.90;999.90;;;11.10;99.90;;;;;;5443570;26;20038;-70
2024/04/10 07:45:57;;;;;;;1999.90;999.90;;;11.20;99.90;;;;;;5425921;26;20495;-69
2024/04/10 07:48:22;;;;;;;1999.90;999.90;;;11.20;99.90;;;;;;5425257;26;20003;-70
2024/04/10 07:50:48;;;;;;;1999.90;999.90;;;11.20;99.90;;;;;;5439570;26;20010;-68
2024/04/10 07:53:14;;;;;;;1999.90;999.90;;;11.30;99.90;;;;;;5423254;26;20071;-70
2024/04/10 07:55:39;;;;;;;1999.90;999.90;;;11.30;99.90;;;;;;5433902;26;19998;-70
2024/04/10 07:58:05;;;;;;;1999.90;999.90;;;11.30;99.90;;;;;;5434464;26;19999;-69
2024/04/10 08:00:30;;;;;;;1999.90;999.90;;;11.40;99.90;;;;;;5441183;26;20872;-71
2024/04/10 08:02:56;;;;;;;1999.90;999.90;;;11.40;99.90;;;;;;5430710;26;20003;-70
2024/04/10 08:05:22;;;;;;;1999.90;999.90;;;11.60;99.90;;;;;;5441915;26;20060;-70
2024/04/10 08:07:48;;;;;;;1999.90;999.90;;;11.60;99.90;;;;;;5441820;26;20352;-65
2024/04/10 08:10:14;;;;;;;1999.90;999.90;;;11.60;99.90;;;;;;5441855;26;19999;-64
2024/04/10 08:12:39;;;;;;;1999.90;999.90;;;11.60;99.90;;;;;;5426858;26;20004;-65
2024/04/10 08:15:08;;;;;;;1999.90;999.90;;;11.80;99.90;;;;;;5437656;26;20075;-65
2024/04/10 08:17:38;;;;;;;1999.90;999.90;;;11.80;99.90;;;;;;5407994;26;20435;-68
2024/04/10 08:20:04;;;;;;;1999.90;999.90;;;11.80;99.90;;;;;;5431312;26;20006;-66
2024/04/10 08:22:29;;;;;;;1999.90;999.90;;;11.90;99.90;;;;;;5431053;26;19995;-70
2024/04/10 08:24:55;;;;;;;1999.90;999.90;;;12.00;99.90;;;;;;5440679;26;19994;-70
2024/04/10 08:27:21;;;;;;;1999.90;999.90;;;12.00;99.90;;;;;;5439919;26;20442;-67
2024/04/10 08:29:49;;;;;;;1999.90;999.90;;;12.20;99.90;;;;;;5437872;26;19999;-69
2024/04/10 08:32:15;;;;;;;1999.90;999.90;;;12.20;99.90;;;;;;5446846;26;19994;-69
2024/04/10 08:34:41;;;;;;;1999.90;999.90;;;12.20;99.90;;;;;;5436821;26;19990;-67
2024/04/10 08:37:06;;;;;;;1999.90;999.90;;;12.20;99.90;;;;;;5441525;26;20327;-69
2024/04/10 08:39:32;;;;;;;1999.90;999.90;;;12.20;99.90;;;;;;5437647;26;20011;-71
2024/04/10 08:41:59;;;;;;;1999.90;999.90;;;12.30;99.90;;;;;;5438707;26;19996;-70
2024/04/10 08:44:26;;;;;;;1999.90;999.90;;;12.60;99.90;;;;;;5428839;26;19999;-65
2024/04/10 08:46:55;;;;;;;1999.90;999.90;;;12.70;99.90;;;;;;5415831;26;19999;-67
2024/04/10 08:49:23;;;;;;;1999.90;999.90;;;12.70;99.90;;;;;;5406879;26;20015;-65
2024/04/10 08:51:50;;;;;;;1999.90;999.90;;;12.50;99.90;;;;;;5433090;26;20064;-65
2024/04/10 08:54:19;;;;;;;1999.90;999.90;;;12.20;99.90;;;;;;5427364;26;20010;-67
2024/04/10 08:56:45;;;;;;;1999.90;999.90;;;12.30;99.90;;;;;;5444324;26;20087;-65
2024/04/10 08:59:10;;;;;;;1999.90;999.90;;;12.30;99.90;;;;;;5438631;26;20390;-69
2024/04/10 09:01:37;;;;;;;1999.90;999.90;;;12.30;99.90;;;;;;5441578;26;20003;-68
2024/04/10 09:04:10;;;;;;;1999.90;999.90;;;12.30;99.90;;;;;;5434285;26;19999;-66
2024/04/10 09:06:37;;;;;;;1999.90;999.90;;;12.50;99.90;;;;;;5432238;26;20072;-66
2024/04/10 09:09:06;;;;;;;1999.90;999.90;;;12.50;99.90;;;;;;5434404;26;20433;-66
2024/04/10 09:11:32;;;;;;;1999.90;999.90;;;12.80;99.90;;;;;;5428952;26;20079;-65
2024/04/10 09:14:04;;;;;;;1999.90;999.90;;;13.10;99.90;;;;;;5432383;26;19995;-65
2024/04/10 09:16:30;;;;;;;1999.90;999.90;;;13.20;99.90;;;;;;5440659;26;20450;-65
2024/04/10 09:19:06;;;;;;;1999.90;999.90;;;13.10;99.90;;;;;;5433705;26;20017;-67
2024/04/10 09:21:31;;;;;;;1999.90;999.90;;;13.20;99.90;;;;;;5433184;26;19999;-65
2024/04/10 09:24:00;;;;;;;1999.90;999.90;;;13.30;99.90;;;;;;5428527;26;19995;-65
2024/04/10 09:26:26;;;;;;;1999.90;999.90;;;13.20;99.90;;;;;;5416494;26;20002;-65
2024/04/10 09:29:05;;;;;;;1999.90;999.90;;;13.20;99.90;;;;;;5428416;26;20358;-66
2024/04/10 09:31:31;;;;;;;1999.90;999.90;;;13.20;99.90;;;;;;5436730;26;19994;-65
2024/04/10 09:33:57;;;;;;;1999.90;999.90;;;13.30;99.90;;;;;;5436333;26;19995;-65
2024/04/10 09:36:23;;;;;;;1999.90;999.90;;;13.20;99.90;;;;;;5436083;26;20002;-65
2024/04/10 09:38:50;;;;;;;1999.90;999.90;;;13.20;99.90;;;;;;5445017;26;20006;-65
2024/04/10 09:41:16;;;;;;;1999.90;999.90;;;13.00;99.90;;;;;;5422460;26;20029;-67
2024/04/10 09:43:45;;;;;;;1999.90;999.90;;;13.00;99.90;;;;;;5435110;26;20009;-67
2024/04/10 09:46:11;;;;;;;1999.90;999.90;;;13.00;99.90;;;;;;5416797;26;20022;-64
2024/04/10 09:48:41;;;;;;;1999.90;999.90;;;13.10;99.90;;;;;;5439521;26;20003;-69
2024/04/10 09:51:11;;;;;;;1999.90;999.90;;;13.30;99.90;;;;;;5422564;26;20080;-71
2024/04/10 09:53:37;;;;;;;1999.90;999.90;;;13.60;99.90;;;;;;5443869;26;20002;-67
2024/04/10 09:56:05;;;;;;;1999.90;999.90;;;13.70;99.90;;;;;;5411458;26;20098;-68
2024/04/10 09:58:34;;;;;;;1999.90;999.90;;;13.90;99.90;;;;;;5435659;26;20067;-66
2024/04/10 10:01:02;;;;;;;1999.90;999.90;;;14.10;99.90;;;;;;5416221;26;20049;-68
2024/04/10 10:03:27;;;;;;;1999.90;999.90;;;14.10;99.90;;;;;;5422024;26;20009;-66
2024/04/10 10:06:04;;;;;;;1999.90;999.90;;;14.30;99.90;;;;;;5433974;26;19995;-66
2024/04/10 10:08:30;;;;;;;1999.90;999.90;;;14.60;99.90;;;;;;5434525;26;19994;-68
2024/04/10 10:10:57;;;;;;;1999.90;999.90;;;14.90;99.90;;;;;;5439977;26;19995;-68
2024/04/10 10:13:29;;;;;;;1999.90;999.90;;;15.00;99.90;;;;;;5434346;26;20335;-66
2024/04/10 10:15:59;;;;;;;1999.90;999.90;;;15.20;99.90;;;;;;5425036;26;19995;-66
2024/04/10 10:18:26;;;;;;;1999.90;999.90;;;15.20;99.90;;;;;;5443107;26;20003;-68
2024/04/10 10:21:00;;;;;;;1999.90;999.90;;;15.40;99.90;;;;;;5435119;26;20006;-66
2024/04/10 10:23:26;;;;;;;1999.90;999.90;;;15.10;99.90;;;;;;5441621;26;19999;-65
2024/04/10 10:25:51;;;;;;;1999.90;999.90;;;14.90;99.90;;;;;;5446488;26;19998;-68
2024/04/10 10:28:17;;;;;;;1999.90;999.90;;;14.80;99.90;;;;;;5445646;26;20009;-68
2024/04/10 10:30:43;;;;;;;1999.90;999.90;;;14.90;99.90;;;;;;5422759;26;19999;-69
2024/04/10 10:33:08;;;;;;;1999.90;999.90;;;15.00;99.90;;;;;;5440206;26;20000;-70
2024/04/10 10:35:34;;;;;;;1999.90;999.90;;;15.40;99.90;;;;;;5447355;26;20442;-69
2024/04/10 10:38:06;;;;;;;1999.90;999.90;;;15.80;99.90;;;;;;5442300;26;19996;-66
2024/04/10 10:40:32;;;;;;;1999.90;999.90;;;15.80;99.90;;;;;;5419658;26;19991;-66
2024/04/10 10:42:59;;;;;;;1999.90;999.90;;;15.70;99.90;;;;;;5425188;26;20076;-65
2024/04/10 10:45:25;;;;;;;1999.90;999.90;;;15.80;99.90;;;;;;5438566;26;20446;-67
2024/04/10 10:47:51;;;;;;;1999.90;999.90;;;15.90;99.90;;;;;;5439541;26;20068;-66
2024/04/10 10:50:17;;;;;;;1999.90;999.90;;;15.70;99.90;;;;;;5433864;26;19999;-65
2024/04/10 10:52:43;;;;;;;1999.90;999.90;;;15.60;99.90;;;;;;5436040;26;19999;-65
2024/04/10 10:55:16;;;;;;;1999.90;999.90;;;15.30;99.90;;;;;;5430352;26;20013;-64
2024/04/10 10:57:41;;;;;;;1999.90;999.90;;;14.80;99.90;;;;;;5427621;26;19995;-64
2024/04/10 11:00:17;;;;;;;1999.90;999.90;;;14.60;99.90;;;;;;5425949;26;20089;-66
2024/04/10 11:02:44;;;;;;;1999.90;999.90;;;14.50;99.90;;;;;;5442599;26;20007;-64
2024/04/10 11:05:13;;;;;;;1999.90;999.90;;;14.50;99.90;;;;;;5447546;26;20013;-67
2024/04/10 11:07:41;;;;;;;1999.90;999.90;;;14.40;99.90;;;;;;5474173;26;20011;-68
2024/04/10 11:10:11;;;;;;;1999.90;999.90;;;14.60;99.90;;;;;;5438821;26;20072;-66
2024/04/10 11:12:37;;;;;;;1999.90;999.90;;;14.60;99.90;;;;;;5440875;26;20462;-67
2024/04/10 11:15:10;;;;;;;1999.90;999.90;;;14.60;99.90;;;;;;5429117;26;20000;-67
2024/04/10 11:17:37;;;;;;;1999.90;999.90;;;14.70;99.90;;;;;;5437764;26;20048;-64
2024/04/10 11:20:10;;;;;;;1999.90;999.90;;;14.70;99.90;;;;;;5441500;26;20031;-64
2024/04/10 11:22:36;;;;;;;1999.90;999.90;;;14.80;99.90;;;;;;5435038;26;20461;-67
2024/04/10 11:25:03;;;;;;;1999.90;999.90;;;14.80;99.90;;;;;;5447409;26;20017;-66
2024/04/10 11:27:28;;;;;;;1999.90;999.90;;;14.80;99.90;;;;;;5442752;26;19998;-68
2024/04/10 11:29:54;;;;;;;1999.90;999.90;;;14.90;99.90;;;;;;5439416;26;19998;-66
2024/04/10 11:32:21;;;;;;;1999.90;999.90;;;14.90;99.90;;;;;;5434972;26;20035;-64
2024/04/10 11:34:47;;;;;;;1999.90;999.90;;;15.10;99.90;;;;;;5439598;26;20004;-64
2024/04/10 11:37:13;;;;;;;1999.90;999.90;;;15.20;99.90;;;;;;5434351;26;20018;-66
2024/04/10 11:39:39;;;;;;;1999.90;999.90;;;15.00;99.90;;;;;;5438778;26;19999;-64
2024/04/10 11:42:04;;;;;;;1999.90;999.90;;;15.00;99.90;;;;;;5438954;26;20075;-64
2024/04/10 11:44:30;;;;;;;1999.90;999.90;;;15.10;99.90;;;;;;5425106;26;19995;-69
2024/04/10 11:46:56;;;;;;;1999.90;999.90;;;15.10;99.90;;;;;;5440067;26;19999;-71
2024/04/10 11:49:21;;;;;;;1999.90;999.90;;;15.10;99.90;;;;;;5443100;26;20035;-71
2024/04/10 11:51:47;;;;;;;1999.90;999.90;;;15.00;99.90;;;;;;5435743;26;20014;-69
2024/04/10 11:54:13;;;;;;;1999.90;999.90;;;14.90;99.90;;;;;;5437569;26;20009;-70
2024/04/10 11:56:39;;;;;;;1999.90;999.90;;;14.90;99.90;;;;;;5438305;26;20075;-65
2024/04/10 11:59:04;;;;;;;1999.90;999.90;;;15.10;99.90;;;;;;5439875;26;20091;-65
2024/04/10 12:01:30;;;;;;;1999.90;999.90;;;15.10;99.90;;;;;;5444574;26;20005;-66
2024/04/10 12:03:55;;;;;;;1999.90;999.90;;;15.10;99.90;;;;;;5436914;26;20343;-65
2024/04/10 12:06:21;;;;;;;1999.90;999.90;;;15.10;99.90;;;;;;5442415;26;20450;-66
2024/04/10 12:08:47;;;;;;;1999.90;999.90;;;15.10;99.90;;;;;;5447214;26;19999;-66
2024/04/10 12:11:13;;;;;;;1999.90;999.90;;;15.20;99.90;;;;;;5416258;26;19999;-65
2024/04/10 12:13:42;;;;;;;1999.90;999.90;;;15.30;99.90;;;;;;5444484;26;20104;-64
2024/04/10 12:16:08;;;;;;;1999.90;999.90;;;15.20;99.90;;;;;;5449665;26;20002;-65
2024/04/10 12:18:34;;;;;;;1999.90;999.90;;;15.20;99.90;;;;;;5430858;26;20495;-70
2024/04/10 12:20:59;;;;;;;1999.90;999.90;;;15.30;99.90;;;;;;5445020;26;19990;-69
2024/04/10 12:23:26;;;;;;;1999.90;999.90;;;15.40;99.90;;;;;;5442314;26;20096;-70
2024/04/10 12:25:51;;;;;;;1999.90;999.90;;;15.40;99.90;;;;;;5420919;26;19994;-65
2024/04/10 12:28:17;;;;;;;1999.90;999.90;;;15.30;99.90;;;;;;5440617;26;20003;-67
2024/04/10 12:30:43;;;;;;;1999.90;999.90;;;15.30;99.90;;;;;;5445230;26;19999;-66
2024/04/10 12:33:09;;;;;;;1999.90;999.90;;;15.50;99.90;;;;;;5447838;26;20514;-65
2024/04/10 12:38:19;;;;;;;1999.90;999.90;;;15.50;99.90;;;;;;5416277;26;20010;-66
2024/04/10 12:40:55;;;;;;;1999.90;999.90;;;15.60;99.90;;;;;;5443228;26;19994;-66
2024/04/10 12:43:21;;;;;;;1999.90;999.90;;;15.70;99.90;;;;;;5430204;26;20013;-67
2024/04/10 12:45:46;;;;;;;1999.90;999.90;;;15.80;99.90;;;;;;5439006;26;19999;-64
2024/04/10 12:48:12;;;;;;;1999.90;999.90;;;15.80;99.90;;;;;;5430341;26;20003;-68
2024/04/10 12:50:39;;;;;;;1999.90;999.90;;;15.90;99.90;;;;;;5449079;26;20014;-64
2024/04/10 12:53:05;;;;;;;1999.90;999.90;;;16.00;99.90;;;;;;5434470;26;20010;-65
2024/04/10 12:55:30;;;;;;;1999.90;999.90;;;16.00;99.90;;;;;;5427613;26;19995;-64
2024/04/10 12:57:57;;;;;;;1999.90;999.90;;;15.90;99.90;;;;;;5432612;26;20042;-69